D/T METAR WX W/DIR W/SPE G/SPE TEMP DEWP
23/03/19 12:20 EGNV 231220Z 25010KT 220V280 9999 FEW035 10/00 Q1033 WSW (250°) 11.5mph 10°C 0°C
23/03/19 11:50 EGNV 231150Z 26009KT 9999 FEW036 09/00 Q1033 W (260°) 10.4mph 9°C 0°C
23/03/19 11:20 EGNV 231120Z 28009KT 240V310 9999 FEW032 09/00 Q1032 W (280°) 10.4mph 9°C 0°C
23/03/19 10:50 EGNV 231050Z 26010KT 9999 FEW028 08/01 Q1032 W (260°) 11.5mph 8°C 1°C
23/03/19 10:20 EGNV 231020Z 27010KT 9999 FEW025 08/01 Q1032 W (270°) 11.5mph 8°C 1°C
23/03/19 09:50 EGNV 230950Z 24008KT 200V280 9999 FEW025 07/01 Q1032 WSW (240°) 9.2mph 7°C 1°C
23/03/19 09:20 EGNV 230920Z 24008KT CAVOK 07/01 Q1032 WSW (240°) 9.2mph 7°C 1°C
23/03/19 08:50 EGNV 230850Z 25007KT CAVOK 06/01 Q1032 WSW (250°) 8.1mph 6°C 1°C
23/03/19 08:20 EGNV 230820Z 26006KT CAVOK 06/01 Q1031 W (260°) 6.9mph 6°C 1°C
23/03/19 07:50 EGNV 230750Z 24006KT CAVOK 05/01 Q1031 WSW (240°) 6.9mph 5°C 1°C
23/03/19 06:50 EGNV 230650Z 27007KT CAVOK 05/00 Q1030 W (270°) 8.1mph 5°C 0°C
23/03/19 06:20 EGNV 230620Z 27009KT 9999 FEW048 04/M00 Q1030 W (270°) 10.4mph 4°C 0°C
22/03/19 21:50 EGNV 222150Z 27010KT 9999 FEW029 09/04 Q1025 W (270°) 11.5mph 9°C 4°C
22/03/19 21:20 EGNV 222120Z 27011KT 9999 FEW035 09/04 Q1024 W (270°) 12.7mph 9°C 4°C
22/03/19 20:50 EGNV 222050Z 27007KT 9999 SCT035 09/05 Q1024 W (270°) 8.1mph 9°C 5°C
22/03/19 20:20 EGNV 222020Z 26008KT 9999 SCT023 BKN033 10/05 Q1023 W (260°) 9.2mph 10°C 5°C
22/03/19 19:50 EGNV 221950Z 25010KT 9999 SCT020 10/07 Q1023 WSW (250°) 11.5mph 10°C 7°C
22/03/19 18:50 EGNV 221850Z 23013KT 9999 FEW020 10/08 Q1022 SW (230°) 15.0mph 10°C 8°C
22/03/19 18:20 EGNV 221820Z 23015KT 9999 FEW020 09/07 Q1022 SW (230°) 17.3mph 9°C 7°C
22/03/19 17:50 EGNV 221750Z 23015KT 9999 FEW030 10/07 Q1021 SW (230°) 17.3mph 10°C 7°C
22/03/19 17:20 EGNV 221720Z 24016KT 9999 FEW024 11/06 Q1021 WSW (240°) 18.4mph 11°C 6°C
22/03/19 16:50 EGNV 221650Z 22017KT 9999 FEW024 11/06 Q1021 SW (220°) 19.6mph 11°C 6°C
22/03/19 16:20 EGNV 221620Z 22017KT 9999 SCT024 11/06 Q1021 SW (220°) 19.6mph 11°C 6°C
22/03/19 15:50 EGNV 221550Z 23015KT 9999 BKN025 11/06 Q1021 SW (230°) 17.3mph 11°C 6°C
22/03/19 15:20 EGNV 221520Z 23021KT 9999 BKN025 11/06 Q1021 SW (230°) 24.2mph 11°C 6°C
22/03/19 14:50 EGNV 221450Z 21016G26KT 9999 BKN028 11/06 Q1022 SSW (210°) 18.4mph 29.9mph 11°C 6°C
22/03/19 14:20 EGNV 221420Z 24016KT 9999 BKN030 11/05 Q1022 WSW (240°) 18.4mph 11°C 5°C
22/03/19 13:50 EGNV 221350Z 24014KT 9999 BKN030 11/05 Q1022 WSW (240°) 16.1mph 11°C 5°C
22/03/19 13:20 EGNV 221320Z 24017KT 9999 BKN032 11/05 Q1021 WSW (240°) 19.6mph 11°C 5°C
22/03/19 12:50 EGNV 221250Z 23018KT 9999 BKN032 11/05 Q1022 SW (230°) 20.7mph 11°C 5°C
22/03/19 12:20 EGNV 221220Z 23021KT 9999 SCT032 12/05 Q1022 SW (230°) 24.2mph 12°C 5°C
22/03/19 11:50 EGNV 221150Z 24020KT 9999 FEW025 BKN030 11/06 Q1022 WSW (240°) 23.0mph 11°C 6°C
22/03/19 10:50 EGNV 221050Z 20013KT 170V230 9999 FEW022 SCT032 12/06 Q1022 SSW (200°) 15.0mph 12°C 6°C
22/03/19 10:20 EGNV 221020Z 22018KT 9999 FEW022 BKN030 13/07 Q1022 SW (220°) 20.7mph 13°C 7°C
22/03/19 09:50 EGNV 220950Z 21017KT 9999 FEW025 BKN030 12/07 Q1022 SSW (210°) 19.6mph 12°C 7°C
22/03/19 09:20 EGNV 220920Z 21022KT 9999 FEW024 BKN030 11/07 Q1022 SSW (210°) 25.3mph 11°C 7°C
22/03/19 08:50 EGNV 220850Z 22018KT 9999 FEW023 BKN030 11/07 Q1023 SW (220°) 20.7mph 11°C 7°C
22/03/19 08:20 EGNV 220820Z 21017KT 9999 FEW025 BKN030 11/07 Q1023 SSW (210°) 19.6mph 11°C 7°C
22/03/19 07:50 EGNV 220750Z 19011KT 160V220 9999 BKN022 10/07 Q1023 S (190°) 12.7mph 10°C 7°C
22/03/19 06:50 EGNV 220650Z 20012KT 9999 BKN020 10/06 Q1024 SSW (200°) 13.8mph 10°C 6°C
22/03/19 06:20 EGNV 220620Z 21016KT 9999 OVC020 11/07 Q1023 SSW (210°) 18.4mph 11°C 7°C
21/03/19 21:50 EGNV 212150Z 19007KT CAVOK 07/06 Q1029 S (190°) 8.1mph 7°C 6°C
21/03/19 21:20 EGNV 212120Z 19006KT CAVOK 07/06 Q1029 S (190°) 6.9mph 7°C 6°C
21/03/19 20:50 EGNV 212050Z 18004KT CAVOK 08/06 Q1029 S (180°) 4.6mph 8°C 6°C
21/03/19 20:20 EGNV 212020Z 18005KT CAVOK 08/06 Q1030 S (180°) 5.8mph 8°C 6°C
21/03/19 19:20 EGNV 211920Z 20005KT CAVOK 09/07 Q1030 SSW (200°) 5.8mph 9°C 7°C
21/03/19 18:50 EGNV 211850Z 20005KT CAVOK 10/07 Q1030 SSW (200°) 5.8mph 10°C 7°C
21/03/19 18:20 EGNV 211820Z 23005KT CAVOK 10/07 Q1030 SW (230°) 5.8mph 10°C 7°C
21/03/19 17:20 EGNV 211720Z 20005KT 9999 FEW025 13/09 Q1030 SSW (200°) 5.8mph 13°C 9°C
21/03/19 16:50 EGNV 211650Z 22006KT 9999 FEW025 14/09 Q1030 SW (220°) 6.9mph 14°C 9°C
21/03/19 16:20 EGNV 211620Z 21008KT 9999 FEW025 15/09 Q1030 SSW (210°) 9.2mph 15°C 9°C
21/03/19 15:50 EGNV 211550Z 20008KT 9999 FEW025 15/09 Q1030 SSW (200°) 9.2mph 15°C 9°C
21/03/19 15:20 EGNV 211520Z 20008KT 170V240 9999 FEW025 16/09 Q1030 SSW (200°) 9.2mph 16°C 9°C
21/03/19 14:50 EGNV 211450Z 21008KT 170V240 9999 FEW025 16/09 Q1030 SSW (210°) 9.2mph 16°C 9°C
21/03/19 13:50 EGNV 211350Z 23006KT 190V270 9999 FEW028 16/09 Q1030 SW (230°) 6.9mph 16°C 9°C
21/03/19 13:20 EGNV 211320Z 22007KT 9999 FEW028 15/09 Q1031 SW (220°) 8.1mph 15°C 9°C
21/03/19 12:50 EGNV 211250Z 23007KT 200V290 9999 SCT026 15/09 Q1031 SW (230°) 8.1mph 15°C 9°C
21/03/19 12:20 EGNV 211220Z 26009KT 9999 SCT026 14/08 Q1031 W (260°) 10.4mph 14°C 8°C
21/03/19 11:50 EGNV 211150Z 27009KT 230V290 9999 FEW020 SCT025 15/08 Q1031 W (270°) 10.4mph 15°C 8°C
21/03/19 11:20 EGNV 211120Z 25011KT 9999 FEW022 SCT027 15/08 Q1031 WSW (250°) 12.7mph 15°C 8°C
21/03/19 10:50 EGNV 211050Z 25008KT 9999 FEW020 SCT027 13/08 Q1031 WSW (250°) 9.2mph 13°C 8°C
21/03/19 10:20 EGNV 211020Z 26011KT 9999 SCT025 13/08 Q1031 W (260°) 12.7mph 13°C 8°C
21/03/19 09:50 EGNV 210950Z 26009KT 230V290 9999 SCT025 13/08 Q1030 W (260°) 10.4mph 13°C 8°C
21/03/19 09:20 EGNV 210920Z 23007KT 9999 SCT025 12/08 Q1030 SW (230°) 8.1mph 12°C 8°C
21/03/19 08:50 EGNV 210850Z 25006KT 9999 BKN025 12/07 Q1030 WSW (250°) 6.9mph 12°C 7°C
21/03/19 08:20 EGNV 210820Z 25007KT 9999 SCT025 11/07 Q1030 WSW (250°) 8.1mph 11°C 7°C
21/03/19 07:50 EGNV 210750Z VRB03KT 9999 SCT030 10/07 Q1030 N (0°) 3.5mph 10°C 7°C
21/03/19 07:20 EGNV 210720Z 22006KT 190V250 9999 FEW030 10/06 Q1029 SW (220°) 6.9mph 10°C 6°C
21/03/19 06:50 EGNV 210650Z 20006KT 9999 FEW020 09/06 Q1029 SSW (200°) 6.9mph 9°C 6°C
21/03/19 05:50 EGNV 210550Z 18006KT 150V210 9999 FEW021 SCT028 10/07 Q1028 S (180°) 6.9mph 10°C 7°C
20/03/19 21:50 EGNV 202150Z 22016KT 9999 FEW017 SCT034 11/08 Q1028 SW (220°) 18.4mph 11°C 8°C
20/03/19 21:20 EGNV 202120Z 22017KT 9999 FEW035 10/07 Q1028 SW (220°) 19.6mph 10°C 7°C
20/03/19 20:50 EGNV 202050Z 23016KT 9999 FEW025 10/07 Q1029 SW (230°) 18.4mph 10°C 7°C
20/03/19 20:20 EGNV 202020Z 23015KT 9999 FEW023 10/07 Q1029 SW (230°) 17.3mph 10°C 7°C
20/03/19 19:50 EGNV 201950Z 24015KT 9999 FEW023 10/07 Q1029 WSW (240°) 17.3mph 10°C 7°C
20/03/19 19:20 EGNV 201920Z 24019KT 9999 FEW020 11/07 Q1029 WSW (240°) 21.9mph 11°C 7°C
20/03/19 18:50 EGNV 201850Z 22015KT 9999 FEW020 11/07 Q1028 SW (220°) 17.3mph 11°C 7°C
20/03/19 18:20 EGNV 201820Z 22012KT 9999 FEW015 11/08 Q1028 SW (220°) 13.8mph 11°C 8°C
20/03/19 17:50 EGNV 201750Z 22013KT 9999 FEW020 12/08 Q1028 SW (220°) 15.0mph 12°C 8°C
20/03/19 16:50 EGNV 201650Z 22010KT 9999 SCT024 12/09 Q1028 SW (220°) 11.5mph 12°C 9°C
20/03/19 16:20 EGNV 201620Z 22014KT 9999 FEW015 SCT025 12/08 Q1028 SW (220°) 16.1mph 12°C 8°C
20/03/19 15:50 EGNV 201550Z 22011KT 180V250 9999 FEW015 SCT025 14/09 Q1028 SW (220°) 12.7mph 14°C 9°C
20/03/19 14:50 EGNV 201450Z 23010KT 9999 FEW017 SCT022 13/09 Q1029 SW (230°) 11.5mph 13°C 9°C
20/03/19 14:20 EGNV 201420Z 21012KT 9999 FEW015 SCT021 13/09 Q1029 SSW (210°) 13.8mph 13°C 9°C
20/03/19 13:50 EGNV 201350Z 21013KT 9999 FEW017 SCT022 12/08 Q1029 SSW (210°) 15.0mph 12°C 8°C
20/03/19 13:20 EGNV 201320Z 22015KT 9999 FEW015 SCT022 13/08 Q1028 SW (220°) 17.3mph 13°C 8°C
20/03/19 12:50 EGNV 201250Z 21012KT 170V240 9999 FEW018 SCT026 14/09 Q1029 SSW (210°) 13.8mph 14°C 9°C
20/03/19 12:20 EGNV 201220Z 19011KT 9999 FEW015 SCT027 12/09 Q1029 S (190°) 12.7mph 12°C 9°C
20/03/19 11:50 EGNV 201150Z 21015KT 9999 FEW018 SCT025 13/08 Q1029 SSW (210°) 17.3mph 13°C 8°C
20/03/19 11:20 EGNV 201120Z 21014KT 9999 FEW020 SCT025 13/09 Q1029 SSW (210°) 16.1mph 13°C 9°C
20/03/19 10:50 EGNV 201050Z 22013KT 9999 FEW020 SCT025 13/08 Q1029 SW (220°) 15.0mph 13°C 8°C
20/03/19 10:20 EGNV 201020Z 21011KT 9999 FEW020 SCT034 14/09 Q1029 SSW (210°) 12.7mph 14°C 9°C
20/03/19 09:50 EGNV 200950Z 20012KT 9999 FEW019 13/09 Q1028 SSW (200°) 13.8mph 13°C 9°C
20/03/19 09:20 EGNV 200920Z 21012KT 9999 FEW027 12/09 Q1028 SSW (210°) 13.8mph 12°C 9°C
20/03/19 08:50 EGNV 200850Z 18007KT 9999 FEW025 11/09 Q1028 S (180°) 8.1mph 11°C 9°C
20/03/19 08:20 EGNV 200820Z 16007KT 9999 FEW025 10/08 Q1028 SSE (160°) 8.1mph 10°C 8°C
20/03/19 07:50 EGNV 200750Z 14005KT 9999 FEW025 10/08 Q1027 SE (140°) 5.8mph 10°C 8°C
20/03/19 07:20 EGNV 200720Z 17004KT 130V210 9999 FEW025 10/08 Q1027 S (170°) 4.6mph 10°C 8°C
20/03/19 06:50 EGNV 200650Z 23005KT 9999 FEW020 09/08 Q1027 SW (230°) 5.8mph 9°C 8°C
20/03/19 06:20 EGNV 200620Z 20007KT 9999 FEW025 09/07 Q1027 SSW (200°) 8.1mph 9°C 7°C
20/03/19 05:50 EGNV 200550Z 20005KT 9999 FEW021 10/08 Q1027 SSW (200°) 5.8mph 10°C 8°C
19/03/19 21:50 EGNV 192150Z 20006KT 9999 FEW020 08/06 Q1025 SSW (200°) 6.9mph 8°C 6°C
19/03/19 21:20 EGNV 192120Z 22007KT 9999 FEW019 08/06 Q1025 SW (220°) 8.1mph 8°C 6°C
19/03/19 20:20 EGNV 192020Z 23008KT 9999 FEW017 07/05 Q1024 SW (230°) 9.2mph 7°C 5°C
19/03/19 19:50 EGNV 191950Z 22010KT 9999 FEW015 09/06 Q1024 SW (220°) 11.5mph 9°C 6°C
19/03/19 18:50 EGNV 191850Z 20008KT 9999 SCT017 10/06 Q1024 SSW (200°) 9.2mph 10°C 6°C
19/03/19 18:20 EGNV 191820Z 23010KT 9999 BKN020 10/06 Q1024 SW (230°) 11.5mph 10°C 6°C
19/03/19 17:50 EGNV 191750Z 23011KT 9999 SCT020 10/06 Q1024 SW (230°) 12.7mph 10°C 6°C
19/03/19 17:20 EGNV 191720Z 24014KT 9999 FEW025 11/06 Q1024 WSW (240°) 16.1mph 11°C 6°C
19/03/19 16:20 EGNV 191620Z 21009KT 9999 FEW024 10/06 Q1023 SSW (210°) 10.4mph 10°C 6°C
19/03/19 15:50 EGNV 191550Z 23012KT 9999 FEW024 SCT031 11/06 Q1023 SW (230°) 13.8mph 11°C 6°C
19/03/19 15:20 EGNV 191520Z 23014KT 9999 FEW021 SCT028 11/06 Q1023 SW (230°) 16.1mph 11°C 6°C
19/03/19 14:50 EGNV 191450Z 23016KT 9999 FEW026 SCT035 11/06 Q1023 SW (230°) 18.4mph 11°C 6°C
19/03/19 14:20 EGNV 191420Z 22016KT 9999 FEW024 SCT043 12/06 Q1022 SW (220°) 18.4mph 12°C 6°C
19/03/19 13:50 EGNV 191350Z 22015KT 9999 FEW020 SCT035 12/06 Q1023 SW (220°) 17.3mph 12°C 6°C
19/03/19 13:20 EGNV 191320Z 22014KT 9999 FEW020 BKN028 11/06 Q1023 SW (220°) 16.1mph 11°C 6°C
19/03/19 12:50 EGNV 191250Z 23013KT 9999 FEW020 BKN028 12/06 Q1023 SW (230°) 15.0mph 12°C 6°C
19/03/19 12:20 EGNV 191220Z 24015KT 9999 FEW015 BKN025 12/06 Q1023 WSW (240°) 17.3mph 12°C 6°C
19/03/19 11:50 EGNV 191150Z 24011KT 9999 FEW016 BKN026 12/06 Q1023 WSW (240°) 12.7mph 12°C 6°C
19/03/19 11:20 EGNV 191120Z 20010KT 9999 VCSH FEW015 SCT024 11/07 Q1023 VCSH SSW (200°) 11.5mph 11°C 7°C
19/03/19 10:50 EGNV 191050Z 18010KT 9999 VCSH FEW016 SCT031 11/07 Q1023 VCSH S (180°) 11.5mph 11°C 7°C
19/03/19 10:20 EGNV 191020Z 18010KT 9999 FEW021 10/07 Q1023 S (180°) 11.5mph 10°C 7°C
19/03/19 09:50 EGNV 190950Z 18010KT 9000 FEW020 SCT038 09/06 Q1023 S (180°) 11.5mph 9°C 6°C
19/03/19 09:20 EGNV 190920Z 19009KT 9999 FEW030 SCT038 08/06 Q1023 S (190°) 10.4mph 8°C 6°C
19/03/19 08:50 EGNV 190850Z 18008KT 9999 FEW030 BKN035 07/05 Q1023 S (180°) 9.2mph 7°C 5°C
19/03/19 08:20 EGNV 190820Z 19007KT 9999 FEW035 BKN040 07/05 Q1023 S (190°) 8.1mph 7°C 5°C
19/03/19 07:50 EGNV 190750Z 19008KT 9999 FEW033 BKN039 06/05 Q1023 S (190°) 9.2mph 6°C 5°C
19/03/19 07:20 EGNV 190720Z 20006KT 9999 BKN032 06/05 Q1023 SSW (200°) 6.9mph 6°C 5°C
19/03/19 06:50 EGNV 190650Z 20005KT 9999 SCT038 05/04 Q1023 SSW (200°) 5.8mph 5°C 4°C
19/03/19 06:20 EGNV 190620Z 22005KT 9999 FEW038 05/04 Q1023 SW (220°) 5.8mph 5°C 4°C
19/03/19 05:50 EGNV 190550Z 19005KT 160V220 9999 SCT038 06/05 Q1022 S (190°) 5.8mph 6°C 5°C
18/03/19 21:50 EGNV 182150Z 18003KT CAVOK 04/02 Q1021 S (180°) 3.5mph 4°C 2°C
18/03/19 21:20 EGNV 182120Z 20003KT 9999 FEW035 05/03 Q1021 SSW (200°) 3.5mph 5°C 3°C
18/03/19 20:50 EGNV 182050Z 20002KT 9999 SCT045 06/03 Q1021 SSW (200°) 2.3mph 6°C 3°C
18/03/19 19:50 EGNV 181950Z 23004KT 9999 FEW035 BKN048 06/03 Q1021 SW (230°) 4.6mph 6°C 3°C
18/03/19 19:20 EGNV 181920Z 24006KT 9999 FEW030 BKN042 07/03 Q1020 WSW (240°) 6.9mph 7°C 3°C
18/03/19 18:50 EGNV 181850Z 22007KT 9999 FEW025 BKN042 07/04 Q1020 SW (220°) 8.1mph 7°C 4°C
18/03/19 18:20 EGNV 181820Z 23007KT 9999 FEW025 BKN040 07/03 Q1020 SW (230°) 8.1mph 7°C 3°C
18/03/19 17:50 EGNV 181750Z 24006KT 9999 FEW030 BKN042 08/03 Q1019 WSW (240°) 6.9mph 8°C 3°C
18/03/19 17:20 EGNV 181720Z 25006KT 9999 VCSH FEW027 FEW035CB SCT045 09/03 Q1019 VCSH WSW (250°) 6.9mph 9°C 3°C
18/03/19 16:50 EGNV 181650Z 25007KT 9999 FEW023 SCT044 09/03 Q1019 WSW (250°) 8.1mph 9°C 3°C
18/03/19 16:20 EGNV 181620Z 25006KT 9999 FEW028 SCT045 09/03 Q1019 WSW (250°) 6.9mph 9°C 3°C
18/03/19 15:50 EGNV 181550Z 20005KT 170V230 9999 FEW035 SCT048 08/04 Q1018 SSW (200°) 5.8mph 8°C 4°C
18/03/19 15:20 EGNV 181520Z 17005KT 150V210 9999 VCSHRA FEW030 SCT040 08/04 Q1018 RESHRA VCSHRA S (170°) 5.8mph 8°C 4°C